sensor_id;sensor_type;location;lat;lon;timestamp;P1;durP1;ratioP1;P2;durP2;ratioP2
49962;SDS011;36180;57.678;11.910;2023-08-06T00:01:56;3.63;;;1.88;;
49962;SDS011;36180;57.678;11.910;2023-08-06T00:04:23;4.25;;;2.00;;
49962;SDS011;36180;57.678;11.910;2023-08-06T00:06:50;2.97;;;2.25;;
49962;SDS011;36180;57.678;11.910;2023-08-06T00:09:17;7.70;;;2.78;;
49962;SDS011;36180;57.678;11.910;2023-08-06T00:11:44;6.78;;;2.35;;
49962;SDS011;36180;57.678;11.910;2023-08-06T00:14:13;1.80;;;1.70;;
49962;SDS011;36180;57.678;11.910;2023-08-06T00:16:42;4.82;;;2.08;;
49962;SDS011;36180;57.678;11.910;2023-08-06T00:19:10;5.05;;;2.00;;
49962;SDS011;36180;57.678;11.910;2023-08-06T00:21:37;3.10;;;2.28;;
49962;SDS011;36180;57.678;11.910;2023-08-06T00:24:05;4.22;;;1.92;;
49962;SDS011;36180;57.678;11.910;2023-08-06T00:26:32;4.47;;;2.08;;
49962;SDS011;36180;57.678;11.910;2023-08-06T00:28:59;4.35;;;2.03;;
49962;SDS011;36180;57.678;11.910;2023-08-06T00:31:27;4.25;;;1.85;;
49962;SDS011;36180;57.678;11.910;2023-08-06T00:33:54;2.85;;;1.75;;
49962;SDS011;36180;57.678;11.910;2023-08-06T00:36:21;7.13;;;2.40;;
49962;SDS011;36180;57.678;11.910;2023-08-06T00:38:48;2.90;;;1.92;;
49962;SDS011;36180;57.678;11.910;2023-08-06T00:41:18;4.88;;;2.55;;
49962;SDS011;36180;57.678;11.910;2023-08-06T00:43:45;3.80;;;1.80;;
49962;SDS011;36180;57.678;11.910;2023-08-06T00:46:12;3.75;;;2.00;;
49962;SDS011;36180;57.678;11.910;2023-08-06T00:48:41;3.22;;;1.95;;
49962;SDS011;36180;57.678;11.910;2023-08-06T00:51:09;4.93;;;2.00;;
49962;SDS011;36180;57.678;11.910;2023-08-06T00:53:37;4.80;;;2.15;;
49962;SDS011;36180;57.678;11.910;2023-08-06T00:56:04;4.88;;;2.22;;
49962;SDS011;36180;57.678;11.910;2023-08-06T00:58:31;4.30;;;2.03;;
49962;SDS011;36180;57.678;11.910;2023-08-06T01:00:59;7.03;;;2.63;;
49962;SDS011;36180;57.678;11.910;2023-08-06T01:03:27;6.50;;;2.60;;
49962;SDS011;36180;57.678;11.910;2023-08-06T01:05:55;4.10;;;2.13;;
49962;SDS011;36180;57.678;11.910;2023-08-06T01:08:26;4.85;;;2.20;;
49962;SDS011;36180;57.678;11.910;2023-08-06T01:11:02;3.97;;;2.20;;
49962;SDS011;36180;57.678;11.910;2023-08-06T01:13:37;5.90;;;2.38;;
49962;SDS011;36180;57.678;11.910;2023-08-06T01:16:09;3.67;;;2.00;;
49962;SDS011;36180;57.678;11.910;2023-08-06T01:18:36;6.60;;;2.50;;
49962;SDS011;36180;57.678;11.910;2023-08-06T01:21:05;3.35;;;2.20;;
49962;SDS011;36180;57.678;11.910;2023-08-06T01:23:32;6.28;;;2.65;;
49962;SDS011;36180;57.678;11.910;2023-08-06T01:26:02;5.88;;;2.20;;
49962;SDS011;36180;57.678;11.910;2023-08-06T01:28:33;5.68;;;2.00;;
49962;SDS011;36180;57.678;11.910;2023-08-06T01:31:06;3.08;;;2.00;;
49962;SDS011;36180;57.678;11.910;2023-08-06T01:33:36;5.28;;;2.10;;
49962;SDS011;36180;57.678;11.910;2023-08-06T01:36:07;4.03;;;2.35;;
49962;SDS011;36180;57.678;11.910;2023-08-06T01:38:34;3.20;;;2.17;;
49962;SDS011;36180;57.678;11.910;2023-08-06T01:41:01;5.13;;;2.33;;
49962;SDS011;36180;57.678;11.910;2023-08-06T01:43:28;4.88;;;2.72;;
49962;SDS011;36180;57.678;11.910;2023-08-06T01:45:55;5.00;;;2.25;;
49962;SDS011;36180;57.678;11.910;2023-08-06T01:48:23;2.65;;;2.05;;
49962;SDS011;36180;57.678;11.910;2023-08-06T01:50:50;5.55;;;2.40;;
49962;SDS011;36180;57.678;11.910;2023-08-06T01:53:19;4.22;;;2.08;;
49962;SDS011;36180;57.678;11.910;2023-08-06T01:55:48;7.00;;;2.25;;
49962;SDS011;36180;57.678;11.910;2023-08-06T01:58:15;8.30;;;2.65;;
49962;SDS011;36180;57.678;11.910;2023-08-06T02:00:42;3.63;;;2.20;;
49962;SDS011;36180;57.678;11.910;2023-08-06T02:03:09;6.20;;;2.33;;
49962;SDS011;36180;57.678;11.910;2023-08-06T02:05:36;5.65;;;2.28;;
49962;SDS011;36180;57.678;11.910;2023-08-06T02:08:03;5.50;;;2.40;;
49962;SDS011;36180;57.678;11.910;2023-08-06T02:10:32;5.72;;;2.17;;
49962;SDS011;36180;57.678;11.910;2023-08-06T02:12:59;3.55;;;2.20;;
49962;SDS011;36180;57.678;11.910;2023-08-06T02:15:26;4.00;;;2.28;;
49962;SDS011;36180;57.678;11.910;2023-08-06T02:17:53;5.15;;;2.15;;
49962;SDS011;36180;57.678;11.910;2023-08-06T02:20:20;3.95;;;2.30;;
49962;SDS011;36180;57.678;11.910;2023-08-06T02:22:47;3.90;;;2.45;;
49962;SDS011;36180;57.678;11.910;2023-08-06T02:25:15;3.90;;;2.20;;
49962;SDS011;36180;57.678;11.910;2023-08-06T02:27:43;7.32;;;2.78;;
49962;SDS011;36180;57.678;11.910;2023-08-06T02:30:11;5.28;;;2.75;;
49962;SDS011;36180;57.678;11.910;2023-08-06T02:32:38;4.63;;;2.55;;
49962;SDS011;36180;57.678;11.910;2023-08-06T02:35:05;3.25;;;2.22;;
49962;SDS011;36180;57.678;11.910;2023-08-06T02:37:33;4.63;;;2.22;;
49962;SDS011;36180;57.678;11.910;2023-08-06T02:40:00;5.45;;;2.67;;
49962;SDS011;36180;57.678;11.910;2023-08-06T02:42:27;6.60;;;2.78;;
49962;SDS011;36180;57.678;11.910;2023-08-06T02:44:56;4.57;;;2.42;;
49962;SDS011;36180;57.678;11.910;2023-08-06T02:47:23;3.05;;;2.25;;
49962;SDS011;36180;57.678;11.910;2023-08-06T02:49:50;4.43;;;2.25;;
49962;SDS011;36180;57.678;11.910;2023-08-06T02:52:18;4.35;;;2.40;;
49962;SDS011;36180;57.678;11.910;2023-08-06T02:54:46;6.78;;;2.53;;
49962;SDS011;36180;57.678;11.910;2023-08-06T02:57:14;3.28;;;2.55;;
49962;SDS011;36180;57.678;11.910;2023-08-06T02:59:41;3.45;;;2.42;;
49962;SDS011;36180;57.678;11.910;2023-08-06T03:02:15;6.30;;;2.42;;
49962;SDS011;36180;57.678;11.910;2023-08-06T03:04:54;6.55;;;2.25;;
49962;SDS011;36180;57.678;11.910;2023-08-06T03:07:26;3.17;;;2.22;;
49962;SDS011;36180;57.678;11.910;2023-08-06T03:12:26;3.35;;;2.20;;
49962;SDS011;36180;57.678;11.910;2023-08-06T03:14:54;4.47;;;2.50;;
49962;SDS011;36180;57.678;11.910;2023-08-06T03:17:22;4.13;;;2.50;;
49962;SDS011;36180;57.678;11.910;2023-08-06T03:19:49;4.18;;;2.10;;
49962;SDS011;36180;57.678;11.910;2023-08-06T03:22:18;3.22;;;2.22;;
49962;SDS011;36180;57.678;11.910;2023-08-06T03:24:45;2.50;;;1.98;;
49962;SDS011;36180;57.678;11.910;2023-08-06T03:27:12;4.05;;;2.25;;
49962;SDS011;36180;57.678;11.910;2023-08-06T03:29:41;5.90;;;2.47;;
49962;SDS011;36180;57.678;11.910;2023-08-06T03:32:08;8.35;;;2.35;;
49962;SDS011;36180;57.678;11.910;2023-08-06T03:34:37;2.78;;;2.00;;
49962;SDS011;36180;57.678;11.910;2023-08-06T03:37:04;3.15;;;2.40;;
49962;SDS011;36180;57.678;11.910;2023-08-06T03:39:33;4.35;;;2.30;;
49962;SDS011;36180;57.678;11.910;2023-08-06T03:42:00;4.68;;;2.30;;
49962;SDS011;36180;57.678;11.910;2023-08-06T03:44:28;3.78;;;2.55;;
49962;SDS011;36180;57.678;11.910;2023-08-06T03:46:56;7.53;;;2.47;;
49962;SDS011;36180;57.678;11.910;2023-08-06T03:49:24;4.10;;;2.28;;
49962;SDS011;36180;57.678;11.910;2023-08-06T03:51:52;4.10;;;2.60;;
49962;SDS011;36180;57.678;11.910;2023-08-06T03:54:19;3.95;;;2.40;;
49962;SDS011;36180;57.678;11.910;2023-08-06T03:56:46;7.15;;;2.70;;
49962;SDS011;36180;57.678;11.910;2023-08-06T03:59:15;3.80;;;2.60;;
49962;SDS011;36180;57.678;11.910;2023-08-06T04:01:44;3.63;;;2.55;;
49962;SDS011;36180;57.678;11.910;2023-08-06T04:04:12;4.18;;;2.30;;
49962;SDS011;36180;57.678;11.910;2023-08-06T04:06:39;5.57;;;2.53;;
49962;SDS011;36180;57.678;11.910;2023-08-06T04:09:08;5.15;;;2.47;;
49962;SDS011;36180;57.678;11.910;2023-08-06T04:11:36;6.20;;;2.38;;
49962;SDS011;36180;57.678;11.910;2023-08-06T04:14:03;5.05;;;2.63;;
49962;SDS011;36180;57.678;11.910;2023-08-06T04:16:30;6.97;;;2.63;;
49962;SDS011;36180;57.678;11.910;2023-08-06T04:18:57;3.83;;;2.58;;
49962;SDS011;36180;57.678;11.910;2023-08-06T04:21:24;4.50;;;2.67;;
49962;SDS011;36180;57.678;11.910;2023-08-06T04:23:51;2.60;;;2.30;;
49962;SDS011;36180;57.678;11.910;2023-08-06T04:26:20;6.43;;;2.17;;
49962;SDS011;36180;57.678;11.910;2023-08-06T04:28:47;3.90;;;2.30;;
49962;SDS011;36180;57.678;11.910;2023-08-06T04:31:15;5.47;;;2.40;;
49962;SDS011;36180;57.678;11.910;2023-08-06T04:33:43;2.83;;;2.10;;
49962;SDS011;36180;57.678;11.910;2023-08-06T04:36:13;2.67;;;2.15;;
49962;SDS011;36180;57.678;11.910;2023-08-06T04:38:40;5.95;;;2.70;;
49962;SDS011;36180;57.678;11.910;2023-08-06T04:41:11;3.42;;;2.30;;
49962;SDS011;36180;57.678;11.910;2023-08-06T04:43:39;5.55;;;2.42;;
49962;SDS011;36180;57.678;11.910;2023-08-06T04:46:09;4.38;;;2.42;;
49962;SDS011;36180;57.678;11.910;2023-08-06T04:48:36;7.47;;;2.10;;
49962;SDS011;36180;57.678;11.910;2023-08-06T04:51:04;4.90;;;2.67;;
49962;SDS011;36180;57.678;11.910;2023-08-06T04:53:31;3.17;;;2.00;;
49962;SDS011;36180;57.678;11.910;2023-08-06T04:55:58;3.95;;;2.33;;
49962;SDS011;36180;57.678;11.910;2023-08-06T04:58:25;6.40;;;2.80;;
49962;SDS011;36180;57.678;11.910;2023-08-06T05:00:54;3.92;;;2.50;;
49962;SDS011;36180;57.678;11.910;2023-08-06T05:03:21;4.88;;;2.30;;
49962;SDS011;36180;57.678;11.910;2023-08-06T05:05:48;5.00;;;2.45;;
49962;SDS011;36180;57.678;11.910;2023-08-06T05:08:15;4.15;;;2.33;;
49962;SDS011;36180;57.678;11.910;2023-08-06T05:10:43;4.25;;;2.72;;
49962;SDS011;36180;57.678;11.910;2023-08-06T05:13:10;3.67;;;2.17;;
49962;SDS011;36180;57.678;11.910;2023-08-06T05:15:37;3.47;;;2.40;;
49962;SDS011;36180;57.678;11.910;2023-08-06T05:18:09;4.85;;;2.20;;
49962;SDS011;36180;57.678;11.910;2023-08-06T05:20:36;3.88;;;2.38;;
49962;SDS011;36180;57.678;11.910;2023-08-06T05:23:03;4.72;;;2.55;;
49962;SDS011;36180;57.678;11.910;2023-08-06T05:25:31;5.40;;;2.42;;
49962;SDS011;36180;57.678;11.910;2023-08-06T05:27:58;3.22;;;2.13;;
49962;SDS011;36180;57.678;11.910;2023-08-06T05:30:26;2.85;;;2.15;;
49962;SDS011;36180;57.678;11.910;2023-08-06T05:32:53;3.30;;;2.30;;
49962;SDS011;36180;57.678;11.910;2023-08-06T05:35:22;4.82;;;2.28;;
49962;SDS011;36180;57.678;11.910;2023-08-06T05:37:50;3.33;;;1.98;;
49962;SDS011;36180;57.678;11.910;2023-08-06T05:40:17;3.58;;;2.13;;
49962;SDS011;36180;57.678;11.910;2023-08-06T05:42:44;3.20;;;1.80;;
49962;SDS011;36180;57.678;11.910;2023-08-06T05:45:11;3.63;;;2.08;;
49962;SDS011;36180;57.678;11.910;2023-08-06T05:47:38;5.28;;;2.20;;
49962;SDS011;36180;57.678;11.910;2023-08-06T05:50:06;2.75;;;1.90;;
49962;SDS011;36180;57.678;11.910;2023-08-06T05:52:35;3.33;;;1.90;;
49962;SDS011;36180;57.678;11.910;2023-08-06T05:55:02;4.60;;;2.10;;
49962;SDS011;36180;57.678;11.910;2023-08-06T05:57:30;2.67;;;1.95;;
49962;SDS011;36180;57.678;11.910;2023-08-06T05:59:57;3.00;;;2.08;;
49962;SDS011;36180;57.678;11.910;2023-08-06T06:02:24;2.40;;;1.90;;
49962;SDS011;36180;57.678;11.910;2023-08-06T06:04:51;3.72;;;1.85;;
49962;SDS011;36180;57.678;11.910;2023-08-06T06:07:18;3.78;;;2.47;;
49962;SDS011;36180;57.678;11.910;2023-08-06T06:09:46;4.00;;;1.88;;
49962;SDS011;36180;57.678;11.910;2023-08-06T06:12:13;4.90;;;1.80;;
49962;SDS011;36180;57.678;11.910;2023-08-06T06:14:40;3.85;;;1.83;;
49962;SDS011;36180;57.678;11.910;2023-08-06T06:17:07;1.98;;;1.65;;
49962;SDS011;36180;57.678;11.910;2023-08-06T06:19:34;2.70;;;1.70;;
49962;SDS011;36180;57.678;11.910;2023-08-06T06:22:02;3.13;;;1.98;;
49962;SDS011;36180;57.678;11.910;2023-08-06T06:24:29;4.35;;;2.00;;
49962;SDS011;36180;57.678;11.910;2023-08-06T06:26:57;3.78;;;1.75;;
49962;SDS011;36180;57.678;11.910;2023-08-06T06:29:25;2.72;;;1.95;;
49962;SDS011;36180;57.678;11.910;2023-08-06T06:31:52;3.53;;;1.98;;
49962;SDS011;36180;57.678;11.910;2023-08-06T06:34:19;6.63;;;2.05;;
49962;SDS011;36180;57.678;11.910;2023-08-06T06:36:47;3.15;;;1.70;;
49962;SDS011;36180;57.678;11.910;2023-08-06T06:39:15;2.10;;;1.67;;
49962;SDS011;36180;57.678;11.910;2023-08-06T06:41:42;3.63;;;1.60;;
49962;SDS011;36180;57.678;11.910;2023-08-06T06:44:22;2.63;;;1.83;;
49962;SDS011;36180;57.678;11.910;2023-08-06T06:46:49;2.88;;;2.00;;
49962;SDS011;36180;57.678;11.910;2023-08-06T06:49:16;4.38;;;1.90;;
49962;SDS011;36180;57.678;11.910;2023-08-06T06:51:43;4.00;;;1.77;;
49962;SDS011;36180;57.678;11.910;2023-08-06T06:54:10;3.28;;;1.90;;
49962;SDS011;36180;57.678;11.910;2023-08-06T06:56:37;3.05;;;1.80;;
49962;SDS011;36180;57.678;11.910;2023-08-06T06:59:05;5.50;;;1.80;;
49962;SDS011;36180;57.678;11.910;2023-08-06T07:01:33;2.90;;;1.48;;
49962;SDS011;36180;57.678;11.910;2023-08-06T07:04:00;4.18;;;1.80;;
49962;SDS011;36180;57.678;11.910;2023-08-06T07:06:30;5.43;;;1.70;;
49962;SDS011;36180;57.678;11.910;2023-08-06T07:08:57;4.00;;;1.77;;
49962;SDS011;36180;57.678;11.910;2023-08-06T07:11:24;3.28;;;1.73;;
49962;SDS011;36180;57.678;11.910;2023-08-06T07:13:55;2.53;;;1.50;;
49962;SDS011;36180;57.678;11.910;2023-08-06T07:16:24;3.33;;;1.60;;
49962;SDS011;36180;57.678;11.910;2023-08-06T07:18:53;5.47;;;1.65;;
49962;SDS011;36180;57.678;11.910;2023-08-06T07:21:20;3.20;;;1.67;;
49962;SDS011;36180;57.678;11.910;2023-08-06T07:23:47;3.65;;;2.05;;
49962;SDS011;36180;57.678;11.910;2023-08-06T07:26:15;2.60;;;1.42;;
49962;SDS011;36180;57.678;11.910;2023-08-06T07:28:42;2.67;;;1.50;;
49962;SDS011;36180;57.678;11.910;2023-08-06T07:31:09;2.92;;;1.50;;
49962;SDS011;36180;57.678;11.910;2023-08-06T07:33:37;2.53;;;1.83;;
49962;SDS011;36180;57.678;11.910;2023-08-06T07:36:09;2.45;;;1.40;;
49962;SDS011;36180;57.678;11.910;2023-08-06T07:38:37;5.50;;;1.58;;
49962;SDS011;36180;57.678;11.910;2023-08-06T07:41:04;3.67;;;1.38;;
49962;SDS011;36180;57.678;11.910;2023-08-06T07:43:31;3.38;;;1.50;;
49962;SDS011;36180;57.678;11.910;2023-08-06T07:45:58;2.30;;;1.40;;
49962;SDS011;36180;57.678;11.910;2023-08-06T07:48:26;3.05;;;1.35;;
49962;SDS011;36180;57.678;11.910;2023-08-06T07:50:53;4.38;;;1.38;;
49962;SDS011;36180;57.678;11.910;2023-08-06T07:53:22;2.08;;;1.20;;
49962;SDS011;36180;57.678;11.910;2023-08-06T07:55:52;6.53;;;1.70;;
49962;SDS011;36180;57.678;11.910;2023-08-06T07:58:20;3.50;;;1.30;;
49962;SDS011;36180;57.678;11.910;2023-08-06T08:00:47;2.42;;;1.40;;
49962;SDS011;36180;57.678;11.910;2023-08-06T08:03:15;4.80;;;1.77;;
49962;SDS011;36180;57.678;11.910;2023-08-06T08:05:43;2.40;;;1.30;;
49962;SDS011;36180;57.678;11.910;2023-08-06T08:08:11;3.30;;;1.27;;
49962;SDS011;36180;57.678;11.910;2023-08-06T08:10:40;4.55;;;1.48;;
49962;SDS011;36180;57.678;11.910;2023-08-06T08:13:07;2.55;;;1.00;;
49962;SDS011;36180;57.678;11.910;2023-08-06T08:15:34;3.53;;;1.33;;
49962;SDS011;36180;57.678;11.910;2023-08-06T08:18:01;1.75;;;1.27;;
49962;SDS011;36180;57.678;11.910;2023-08-06T08:20:28;3.67;;;1.33;;
49962;SDS011;36180;57.678;11.910;2023-08-06T08:22:57;3.05;;;1.48;;
49962;SDS011;36180;57.678;11.910;2023-08-06T08:25:25;3.40;;;1.33;;
49962;SDS011;36180;57.678;11.910;2023-08-06T08:27:55;2.97;;;1.20;;
49962;SDS011;36180;57.678;11.910;2023-08-06T08:30:23;6.10;;;1.75;;
49962;SDS011;36180;57.678;11.910;2023-08-06T08:32:50;5.07;;;1.40;;
49962;SDS011;36180;57.678;11.910;2023-08-06T08:35:17;2.30;;;1.27;;
49962;SDS011;36180;57.678;11.910;2023-08-06T08:37:44;2.28;;;1.63;;
49962;SDS011;36180;57.678;11.910;2023-08-06T08:40:11;4.07;;;1.40;;
49962;SDS011;36180;57.678;11.910;2023-08-06T08:42:40;5.32;;;1.23;;
49962;SDS011;36180;57.678;11.910;2023-08-06T08:45:11;4.07;;;1.85;;
49962;SDS011;36180;57.678;11.910;2023-08-06T08:47:40;2.08;;;1.27;;
49962;SDS011;36180;57.678;11.910;2023-08-06T08:50:08;2.35;;;1.60;;
49962;SDS011;36180;57.678;11.910;2023-08-06T08:52:36;2.60;;;1.30;;
49962;SDS011;36180;57.678;11.910;2023-08-06T08:55:06;4.90;;;1.70;;
49962;SDS011;36180;57.678;11.910;2023-08-06T08:57:34;2.90;;;1.42;;
49962;SDS011;36180;57.678;11.910;2023-08-06T09:00:01;3.05;;;1.33;;
49962;SDS011;36180;57.678;11.910;2023-08-06T09:02:30;3.13;;;1.00;;
49962;SDS011;36180;57.678;11.910;2023-08-06T09:04:59;5.78;;;1.42;;
49962;SDS011;36180;57.678;11.910;2023-08-06T09:07:29;2.58;;;1.00;;
49962;SDS011;36180;57.678;11.910;2023-08-06T09:09:59;3.47;;;1.00;;
49962;SDS011;36180;57.678;11.910;2023-08-06T09:12:29;3.47;;;1.17;;
49962;SDS011;36180;57.678;11.910;2023-08-06T09:14:56;1.95;;;1.10;;
49962;SDS011;36180;57.678;11.910;2023-08-06T09:17:23;3.03;;;1.00;;
49962;SDS011;36180;57.678;11.910;2023-08-06T09:19:52;3.17;;;1.30;;
49962;SDS011;36180;57.678;11.910;2023-08-06T09:22:19;2.03;;;1.30;;
49962;SDS011;36180;57.678;11.910;2023-08-06T09:24:46;2.25;;;1.15;;
49962;SDS011;36180;57.678;11.910;2023-08-06T09:27:13;1.98;;;1.50;;
49962;SDS011;36180;57.678;11.910;2023-08-06T09:29:41;6.30;;;1.48;;
49962;SDS011;36180;57.678;11.910;2023-08-06T09:32:10;4.47;;;1.38;;
49962;SDS011;36180;57.678;11.910;2023-08-06T09:34:38;3.35;;;1.38;;
49962;SDS011;36180;57.678;11.910;2023-08-06T09:37:08;1.30;;;1.20;;
49962;SDS011;36180;57.678;11.910;2023-08-06T09:39:38;4.57;;;1.30;;
49962;SDS011;36180;57.678;11.910;2023-08-06T09:42:05;2.55;;;1.10;;
49962;SDS011;36180;57.678;11.910;2023-08-06T09:44:33;2.00;;;1.20;;
49962;SDS011;36180;57.678;11.910;2023-08-06T09:47:01;5.57;;;1.60;;
49962;SDS011;36180;57.678;11.910;2023-08-06T09:49:39;3.92;;;1.17;;
49962;SDS011;36180;57.678;11.910;2023-08-06T09:52:10;3.95;;;1.30;;
49962;SDS011;36180;57.678;11.910;2023-08-06T09:54:37;3.15;;;1.00;;
49962;SDS011;36180;57.678;11.910;2023-08-06T09:57:05;3.88;;;1.17;;
49962;SDS011;36180;57.678;11.910;2023-08-06T09:59:32;3.92;;;1.17;;
49962;SDS011;36180;57.678;11.910;2023-08-06T10:02:00;3.00;;;0.93;;
49962;SDS011;36180;57.678;11.910;2023-08-06T10:04:27;5.97;;;1.23;;
49962;SDS011;36180;57.678;11.910;2023-08-06T10:06:55;1.60;;;1.00;;
49962;SDS011;36180;57.678;11.910;2023-08-06T10:09:25;1.88;;;1.10;;
49962;SDS011;36180;57.678;11.910;2023-08-06T10:11:52;3.65;;;1.40;;
49962;SDS011;36180;57.678;11.910;2023-08-06T10:14:21;2.28;;;1.20;;
49962;SDS011;36180;57.678;11.910;2023-08-06T10:16:52;2.75;;;1.10;;
49962;SDS011;36180;57.678;11.910;2023-08-06T10:19:20;5.22;;;1.58;;
49962;SDS011;36180;57.678;11.910;2023-08-06T10:24:47;3.15;;;1.15;;
49962;SDS011;36180;57.678;11.910;2023-08-06T10:27:19;2.70;;;1.52;;
49962;SDS011;36180;57.678;11.910;2023-08-06T10:29:47;7.00;;;1.77;;
49962;SDS011;36180;57.678;11.910;2023-08-06T10:32:14;2.63;;;1.55;;
49962;SDS011;36180;57.678;11.910;2023-08-06T10:34:56;2.78;;;1.42;;
49962;SDS011;36180;57.678;11.910;2023-08-06T10:37:24;5.15;;;1.33;;
49962;SDS011;36180;57.678;11.910;2023-08-06T10:39:55;3.53;;;1.70;;
49962;SDS011;36180;57.678;11.910;2023-08-06T10:42:22;6.32;;;2.20;;
49962;SDS011;36180;57.678;11.910;2023-08-06T10:45:12;2.60;;;1.50;;
49962;SDS011;36180;57.678;11.910;2023-08-06T10:47:43;2.88;;;1.55;;
49962;SDS011;36180;57.678;11.910;2023-08-06T10:50:12;2.58;;;1.27;;
49962;SDS011;36180;57.678;11.910;2023-08-06T10:52:42;5.25;;;1.60;;
49962;SDS011;36180;57.678;11.910;2023-08-06T10:55:11;5.20;;;1.48;;
49962;SDS011;36180;57.678;11.910;2023-08-06T10:57:38;3.45;;;1.50;;
49962;SDS011;36180;57.678;11.910;2023-08-06T11:00:06;7.00;;;1.55;;
49962;SDS011;36180;57.678;11.910;2023-08-06T11:02:34;3.08;;;1.58;;
49962;SDS011;36180;57.678;11.910;2023-08-06T11:05:08;2.22;;;1.45;;
49962;SDS011;36180;57.678;11.910;2023-08-06T11:07:35;2.20;;;1.15;;
49962;SDS011;36180;57.678;11.910;2023-08-06T11:10:03;1.63;;;1.13;;
49962;SDS011;36180;57.678;11.910;2023-08-06T11:12:33;1.90;;;1.10;;
49962;SDS011;36180;57.678;11.910;2023-08-06T11:15:01;2.17;;;1.30;;
49962;SDS011;36180;57.678;11.910;2023-08-06T11:17:29;2.65;;;1.30;;
49962;SDS011;36180;57.678;11.910;2023-08-06T11:19:58;3.17;;;1.55;;
49962;SDS011;36180;57.678;11.910;2023-08-06T11:22:26;2.67;;;1.50;;
49962;SDS011;36180;57.678;11.910;2023-08-06T11:24:53;3.08;;;1.25;;
49962;SDS011;36180;57.678;11.910;2023-08-06T11:27:21;4.13;;;1.38;;
49962;SDS011;36180;57.678;11.910;2023-08-06T11:29:49;2.42;;;1.27;;
49962;SDS011;36180;57.678;11.910;2023-08-06T11:32:16;2.40;;;1.58;;
49962;SDS011;36180;57.678;11.910;2023-08-06T11:34:43;3.30;;;1.60;;
49962;SDS011;36180;57.678;11.910;2023-08-06T11:37:11;4.22;;;1.40;;
49962;SDS011;36180;57.678;11.910;2023-08-06T11:39:38;4.22;;;1.63;;
49962;SDS011;36180;57.678;11.910;2023-08-06T11:42:05;2.95;;;1.65;;
49962;SDS011;36180;57.678;11.910;2023-08-06T11:44:33;2.92;;;1.60;;
49962;SDS011;36180;57.678;11.910;2023-08-06T11:47:03;3.25;;;1.58;;
49962;SDS011;36180;57.678;11.910;2023-08-06T11:49:37;3.88;;;1.50;;
49962;SDS011;36180;57.678;11.910;2023-08-06T11:52:10;5.53;;;1.60;;
49962;SDS011;36180;57.678;11.910;2023-08-06T11:54:41;6.07;;;1.45;;
49962;SDS011;36180;57.678;11.910;2023-08-06T11:57:08;2.33;;;1.30;;
49962;SDS011;36180;57.678;11.910;2023-08-06T11:59:36;3.22;;;1.50;;
49962;SDS011;36180;57.678;11.910;2023-08-06T12:02:07;3.60;;;1.48;;
49962;SDS011;36180;57.678;11.910;2023-08-06T12:07:26;2.58;;;1.30;;
49962;SDS011;36180;57.678;11.910;2023-08-06T12:09:54;2.67;;;1.30;;
49962;SDS011;36180;57.678;11.910;2023-08-06T12:12:21;2.45;;;1.50;;
49962;SDS011;36180;57.678;11.910;2023-08-06T12:14:48;3.22;;;1.40;;
49962;SDS011;36180;57.678;11.910;2023-08-06T12:17:17;4.45;;;1.27;;
49962;SDS011;36180;57.678;11.910;2023-08-06T12:19:45;2.88;;;1.52;;
49962;SDS011;36180;57.678;11.910;2023-08-06T12:22:13;1.83;;;1.30;;
49962;SDS011;36180;57.678;11.910;2023-08-06T12:24:41;4.13;;;1.50;;
49962;SDS011;36180;57.678;11.910;2023-08-06T12:27:08;4.80;;;1.73;;
49962;SDS011;36180;57.678;11.910;2023-08-06T12:29:35;3.65;;;1.80;;
49962;SDS011;36180;57.678;11.910;2023-08-06T12:32:03;4.60;;;1.38;;
49962;SDS011;36180;57.678;11.910;2023-08-06T12:34:31;4.22;;;1.23;;
49962;SDS011;36180;57.678;11.910;2023-08-06T12:36:58;5.20;;;1.50;;
49962;SDS011;36180;57.678;11.910;2023-08-06T12:39:25;4.20;;;1.80;;
49962;SDS011;36180;57.678;11.910;2023-08-06T12:41:54;2.15;;;1.42;;
49962;SDS011;36180;57.678;11.910;2023-08-06T12:44:22;2.03;;;1.30;;
49962;SDS011;36180;57.678;11.910;2023-08-06T12:46:50;4.40;;;1.63;;
49962;SDS011;36180;57.678;11.910;2023-08-06T12:49:17;5.28;;;1.50;;
49962;SDS011;36180;57.678;11.910;2023-08-06T12:51:47;3.35;;;1.70;;
49962;SDS011;36180;57.678;11.910;2023-08-06T12:54:15;3.95;;;1.70;;
49962;SDS011;36180;57.678;11.910;2023-08-06T12:56:43;2.72;;;1.40;;
49962;SDS011;36180;57.678;11.910;2023-08-06T12:59:10;3.38;;;1.65;;
49962;SDS011;36180;57.678;11.910;2023-08-06T13:01:37;3.10;;;1.40;;
49962;SDS011;36180;57.678;11.910;2023-08-06T13:04:04;7.20;;;2.22;;
49962;SDS011;36180;57.678;11.910;2023-08-06T13:06:31;2.75;;;1.50;;
49962;SDS011;36180;57.678;11.910;2023-08-06T13:09:03;3.42;;;1.50;;
49962;SDS011;36180;57.678;11.910;2023-08-06T13:11:31;4.25;;;1.67;;
49962;SDS011;36180;57.678;11.910;2023-08-06T13:14:03;3.20;;;1.55;;
49962;SDS011;36180;57.678;11.910;2023-08-06T13:16:31;10.18;;;3.03;;
49962;SDS011;36180;57.678;11.910;2023-08-06T13:18:58;4.90;;;1.92;;
49962;SDS011;36180;57.678;11.910;2023-08-06T13:21:34;2.72;;;1.48;;
49962;SDS011;36180;57.678;11.910;2023-08-06T13:24:03;5.30;;;1.77;;
49962;SDS011;36180;57.678;11.910;2023-08-06T13:26:30;4.30;;;2.42;;
49962;SDS011;36180;57.678;11.910;2023-08-06T13:28:58;4.88;;;1.88;;
49962;SDS011;36180;57.678;11.910;2023-08-06T13:31:26;5.00;;;1.98;;
49962;SDS011;36180;57.678;11.910;2023-08-06T13:33:53;5.57;;;1.83;;
49962;SDS011;36180;57.678;11.910;2023-08-06T13:36:23;6.72;;;1.75;;
49962;SDS011;36180;57.678;11.910;2023-08-06T13:38:50;5.53;;;1.77;;
49962;SDS011;36180;57.678;11.910;2023-08-06T13:41:18;3.55;;;1.80;;
49962;SDS011;36180;57.678;11.910;2023-08-06T13:43:46;3.60;;;1.73;;
49962;SDS011;36180;57.678;11.910;2023-08-06T13:46:13;6.55;;;1.70;;
49962;SDS011;36180;57.678;11.910;2023-08-06T13:48:41;3.78;;;1.67;;
49962;SDS011;36180;57.678;11.910;2023-08-06T13:51:09;4.88;;;1.92;;
49962;SDS011;36180;57.678;11.910;2023-08-06T13:53:36;2.08;;;1.60;;
49962;SDS011;36180;57.678;11.910;2023-08-06T13:56:03;7.75;;;1.90;;
49962;SDS011;36180;57.678;11.910;2023-08-06T13:58:32;5.47;;;2.17;;
49962;SDS011;36180;57.678;11.910;2023-08-06T14:00:59;7.35;;;1.90;;
49962;SDS011;36180;57.678;11.910;2023-08-06T14:03:26;7.00;;;2.53;;
49962;SDS011;36180;57.678;11.910;2023-08-06T14:05:53;4.65;;;1.73;;
49962;SDS011;36180;57.678;11.910;2023-08-06T14:08:22;2.85;;;1.40;;
49962;SDS011;36180;57.678;11.910;2023-08-06T14:10:49;3.25;;;1.90;;
49962;SDS011;36180;57.678;11.910;2023-08-06T14:13:16;3.60;;;1.90;;
49962;SDS011;36180;57.678;11.910;2023-08-06T14:15:45;4.10;;;1.63;;
49962;SDS011;36180;57.678;11.910;2023-08-06T14:18:13;3.45;;;1.55;;
49962;SDS011;36180;57.678;11.910;2023-08-06T14:20:40;4.20;;;2.15;;
49962;SDS011;36180;57.678;11.910;2023-08-06T14:23:07;4.25;;;1.63;;
49962;SDS011;36180;57.678;11.910;2023-08-06T14:25:34;3.42;;;1.63;;
49962;SDS011;36180;57.678;11.910;2023-08-06T14:28:00;2.00;;;1.50;;
49962;SDS011;36180;57.678;11.910;2023-08-06T14:30:27;2.15;;;1.17;;
49962;SDS011;36180;57.678;11.910;2023-08-06T14:32:56;2.42;;;1.55;;
49962;SDS011;36180;57.678;11.910;2023-08-06T14:35:23;2.42;;;1.65;;
49962;SDS011;36180;57.678;11.910;2023-08-06T14:37:51;3.80;;;1.42;;
49962;SDS011;36180;57.678;11.910;2023-08-06T14:40:18;3.42;;;1.75;;
49962;SDS011;36180;57.678;11.910;2023-08-06T14:42:45;2.03;;;1.23;;
49962;SDS011;36180;57.678;11.910;2023-08-06T14:45:12;3.05;;;1.40;;
49962;SDS011;36180;57.678;11.910;2023-08-06T14:47:39;1.90;;;1.33;;